createdAt,value
2017-06-20T00:01:17.347Z,4.30
2017-06-20T00:03:44.855Z,4.17
2017-06-20T00:06:12.344Z,4.60
2017-06-20T00:08:39.852Z,4.70
2017-06-20T00:11:07.339Z,3.80
2017-06-20T00:13:34.840Z,4.40
2017-06-20T00:16:02.327Z,4.77
2017-06-20T00:18:30.807Z,4.60
2017-06-20T00:20:58.292Z,5.30
2017-06-20T00:23:25.796Z,4.70
2017-06-20T00:25:53.275Z,4.80
2017-06-20T00:28:20.797Z,5.50
2017-06-20T00:30:48.275Z,5.37
2017-06-20T00:33:15.804Z,5.33
2017-06-20T00:35:43.287Z,4.90
2017-06-20T00:38:10.793Z,5.40
2017-06-20T00:40:39.043Z,4.70
2017-06-20T00:43:06.544Z,4.90
2017-06-20T00:45:34.022Z,4.60
2017-06-20T00:48:01.528Z,4.80
2017-06-20T00:50:29.027Z,4.77
2017-06-20T00:52:56.535Z,4.70
2017-06-20T00:55:24.021Z,4.70
2017-06-20T00:57:52.275Z,4.50
2017-06-20T01:00:19.779Z,4.40
2017-06-20T01:02:47.268Z,3.87
2017-06-20T01:05:14.772Z,4.63
2017-06-20T01:07:43.039Z,5.17
2017-06-20T01:10:10.544Z,4.90
2017-06-20T01:12:38.028Z,5.03
2017-06-20T01:15:05.529Z,5.07
2017-06-20T01:17:33.780Z,4.57
2017-06-20T01:20:01.283Z,4.63
2017-06-20T01:22:28.768Z,4.50
2017-06-20T01:24:56.273Z,4.63
2017-06-20T01:27:23.754Z,4.97
2017-06-20T01:29:52.019Z,4.73
2017-06-20T01:32:20.273Z,4.17
2017-06-20T01:34:47.781Z,4.70
2017-06-20T01:37:15.273Z,4.53
2017-06-20T01:39:42.784Z,4.27
2017-06-20T01:42:11.036Z,4.30
2017-06-20T01:44:38.547Z,3.83
2017-06-20T01:47:06.035Z,4.57
2017-06-20T01:49:33.547Z,4.70
2017-06-20T01:52:01.035Z,4.60
2017-06-20T01:54:28.547Z,4.43
2017-06-20T01:56:56.036Z,4.60
2017-06-20T01:59:23.539Z,4.70
2017-06-20T02:01:51.027Z,5.00
2017-06-20T02:04:19.304Z,5.30
2017-06-20T02:06:47.565Z,5.13
2017-06-20T02:09:15.079Z,4.30
2017-06-20T02:11:42.559Z,4.93
2017-06-20T02:14:10.068Z,5.00
2017-06-20T02:16:37.560Z,5.17
2017-06-20T02:19:05.068Z,4.97
2017-06-20T02:21:33.320Z,5.27
2017-06-20T02:24:00.814Z,5.40
2017-06-20T02:26:29.066Z,5.60
2017-06-20T02:28:56.562Z,4.67
2017-06-20T02:31:24.048Z,4.67
2017-06-20T02:33:51.763Z,4.77
2017-06-20T02:36:20.019Z,5.73
2017-06-20T02:38:47.520Z,5.63
2017-06-20T02:41:15.012Z,5.40
2017-06-20T02:43:42.511Z,4.80
2017-06-20T02:46:09.998Z,5.40
2017-06-20T02:48:37.516Z,4.77
2017-06-20T02:51:05.251Z,5.43
2017-06-20T02:53:32.756Z,4.77
2017-06-20T02:56:01.007Z,5.63
2017-06-20T02:58:28.745Z,5.10
2017-06-20T03:00:56.237Z,5.07
2017-06-20T03:03:23.739Z,5.03
2017-06-20T03:05:51.223Z,5.17
2017-06-20T03:08:18.725Z,4.60
2017-06-20T03:10:57.931Z,5.10
2017-06-20T03:13:25.443Z,4.53
2017-06-20T03:15:53.689Z,4.77
2017-06-20T03:18:21.189Z,4.60
2017-06-20T03:20:48.680Z,5.03
2017-06-20T03:23:16.184Z,5.00
2017-06-20T03:25:43.676Z,5.30
2017-06-20T03:28:11.174Z,5.17
2017-06-20T03:30:38.655Z,4.40
2017-06-20T03:33:06.931Z,4.80
2017-06-20T03:35:34.419Z,5.57
2017-06-20T03:38:02.851Z,4.80
2017-06-20T03:40:30.335Z,5.20
2017-06-20T03:42:58.607Z,5.10
2017-06-20T03:45:26.088Z,4.57
2017-06-20T03:47:54.359Z,5.13
2017-06-20T03:50:22.607Z,5.30
2017-06-20T03:52:50.117Z,4.80
2017-06-20T03:55:17.603Z,4.77
2017-06-20T03:57:45.115Z,4.80
2017-06-20T04:00:13.368Z,4.47
2017-06-20T04:02:40.876Z,5.00
2017-06-20T04:05:08.361Z,4.97
2017-06-20T04:07:35.859Z,4.67
2017-06-20T04:10:03.340Z,5.00
2017-06-20T04:12:30.884Z,4.47
2017-06-20T04:14:59.147Z,4.80
2017-06-20T04:17:27.436Z,4.83
2017-06-20T04:19:54.926Z,4.37
2017-06-20T04:22:23.279Z,4.63
2017-06-20T04:24:50.767Z,4.10
2017-06-20T04:27:18.268Z,4.30
2017-06-20T04:29:45.749Z,4.67
2017-06-20T04:32:14.051Z,4.57
2017-06-20T04:34:41.535Z,4.93
2017-06-20T04:37:09.270Z,5.17
2017-06-20T04:39:36.800Z,4.90
2017-06-20T04:42:05.080Z,4.93
2017-06-20T04:44:33.336Z,4.80
2017-06-20T04:47:00.853Z,4.60
2017-06-20T04:49:28.343Z,5.30
2017-06-20T04:51:55.855Z,5.10
2017-06-20T04:54:23.348Z,5.23
2017-06-20T04:56:51.083Z,5.00
2017-06-20T04:59:18.568Z,4.57
2017-06-20T05:01:46.075Z,4.50
2017-06-20T05:04:14.324Z,5.00
2017-06-20T05:06:41.836Z,5.17
2017-06-20T05:09:09.323Z,6.10
2017-06-20T05:11:36.835Z,4.87
2017-06-20T05:14:05.090Z,5.00
2017-06-20T05:16:32.587Z,5.10
2017-06-20T05:19:00.078Z,5.37
2017-06-20T05:21:27.586Z,4.83
2017-06-20T05:23:55.848Z,5.50
2017-06-20T05:26:23.347Z,5.33
2017-06-20T05:28:54.395Z,5.13
2017-06-20T05:31:22.668Z,5.60
2017-06-20T05:33:58.171Z,5.60
2017-06-20T05:36:49.009Z,5.10
2017-06-20T05:39:29.036Z,5.90
2017-06-20T05:44:50.013Z,5.47
2017-06-20T05:47:18.295Z,5.90
2017-06-20T08:42:32.716Z,7.20
2017-06-20T08:47:52.880Z,6.63
2017-06-20T08:50:20.392Z,7.43
2017-06-20T08:52:47.892Z,6.40
2017-06-20T08:55:15.421Z,6.73
2017-06-20T08:57:43.693Z,7.47
2017-06-20T09:00:11.213Z,7.57
2017-06-20T09:02:38.712Z,7.23
2017-06-20T09:05:06.987Z,7.10
2017-06-20T09:07:35.248Z,7.43
2017-06-20T09:10:02.780Z,7.00
2017-06-20T09:12:30.263Z,7.60
2017-06-20T09:14:57.776Z,6.87
2017-06-20T09:17:25.623Z,7.30
2017-06-20T09:19:53.895Z,7.03
2017-06-20T09:22:22.151Z,7.03
2017-06-20T09:24:49.665Z,6.60
2017-06-20T09:27:17.151Z,7.20
2017-06-20T09:32:37.551Z,7.73
2017-06-20T09:35:05.064Z,7.67
2017-06-20T09:37:32.570Z,7.03
2017-06-20T09:40:00.084Z,7.27
2017-06-20T09:42:28.353Z,7.80
2017-06-20T09:44:55.878Z,7.10
2017-06-20T09:47:24.675Z,7.90
2017-06-20T09:49:53.005Z,7.73
2017-06-20T09:52:20.499Z,8.43
2017-06-20T09:54:48.024Z,8.00
2017-06-20T09:57:15.519Z,7.40
2017-06-20T09:59:43.037Z,8.70
2017-06-20T10:02:11.292Z,7.50
2017-06-20T10:04:38.793Z,7.57
2017-06-20T10:07:06.272Z,7.70
2017-06-20T10:09:33.788Z,7.97
2017-06-20T10:12:02.058Z,8.83
2017-06-20T10:14:29.588Z,8.63
2017-06-20T10:16:57.084Z,8.50
2017-06-20T10:59:46.413Z,9.80
2017-06-20T11:02:13.924Z,8.40
2017-06-20T11:04:41.444Z,8.63
2017-06-20T11:07:09.711Z,8.70
2017-06-20T11:09:37.234Z,8.90
2017-06-20T11:12:04.729Z,9.50
2017-06-20T11:14:32.236Z,9.33
2017-06-20T11:16:59.723Z,7.97
2017-06-20T11:19:27.236Z,8.80
2017-06-20T11:21:54.768Z,8.40
2017-06-20T11:24:22.279Z,8.47
2017-06-20T11:26:49.768Z,7.93
2017-06-20T11:29:17.275Z,9.43
2017-06-20T11:31:44.773Z,8.40
2017-06-20T11:34:12.292Z,10.10
2017-06-20T11:36:39.779Z,8.80
2017-06-20T11:39:07.283Z,9.07
2017-06-20T11:41:34.777Z,9.07
2017-06-20T11:44:02.308Z,9.43
2017-06-20T11:46:38.142Z,8.63
2017-06-20T11:49:05.669Z,9.57
2017-06-20T11:51:33.393Z,8.63
2017-06-20T11:54:00.964Z,9.50
2017-06-20T11:56:29.235Z,9.13
2017-06-20T11:58:58.911Z,8.90
2017-06-20T12:01:26.409Z,8.87
2017-06-20T12:03:53.923Z,9.07
2017-06-20T12:06:21.425Z,9.93
2017-06-20T12:08:49.925Z,9.60
2017-06-20T12:11:17.814Z,9.00
2017-06-20T12:13:45.397Z,8.07
2017-06-20T12:16:13.853Z,9.10
2017-06-20T12:18:41.377Z,9.40
2017-06-20T12:21:09.640Z,9.20
2017-06-20T12:23:37.156Z,9.67
2017-06-20T12:26:04.644Z,9.50
2017-06-20T12:28:32.205Z,9.63
2017-06-20T12:30:59.793Z,9.43
2017-06-20T12:33:27.920Z,8.80
2017-06-20T12:35:55.989Z,8.80
2017-06-20T12:38:23.504Z,9.30
2017-06-20T12:40:51.761Z,10.23
2017-06-20T12:43:19.280Z,8.93
2017-06-20T12:45:46.781Z,10.13
2017-06-20T12:48:15.083Z,10.73
2017-06-20T12:50:42.572Z,9.47
2017-06-20T12:53:10.084Z,9.13
2017-06-20T12:55:38.340Z,9.90
2017-06-20T12:58:06.083Z,10.10
2017-06-20T13:00:33.587Z,9.00
2017-06-20T13:03:01.869Z,9.97
2017-06-20T13:05:30.136Z,9.23
2017-06-20T13:07:57.650Z,9.10
2017-06-20T13:10:25.140Z,9.27
2017-06-20T13:12:52.666Z,9.30
2017-06-20T13:15:20.161Z,9.83
2017-06-20T13:17:47.669Z,9.67
2017-06-20T13:20:15.157Z,9.40
2017-06-20T13:22:42.672Z,9.27
2017-06-20T13:25:10.156Z,9.93
2017-06-20T13:27:37.712Z,10.57
2017-06-20T13:30:05.276Z,9.40
2017-06-20T13:32:32.796Z,9.57
2017-06-20T13:35:00.333Z,10.80
2017-06-20T13:37:27.849Z,11.07
2017-06-20T13:39:55.348Z,10.20
2017-06-20T13:42:22.865Z,9.53
2017-06-20T13:44:50.358Z,9.13
2017-06-20T13:47:17.861Z,9.90
2017-06-20T13:49:45.360Z,9.47
2017-06-20T13:52:12.857Z,9.40
2017-06-20T13:54:40.372Z,10.33
2017-06-20T13:57:07.870Z,10.57
2017-06-20T13:59:35.386Z,10.73
2017-06-20T14:02:02.876Z,9.73
2017-06-20T14:04:30.392Z,9.63
2017-06-20T14:06:57.904Z,9.83
2017-06-20T14:09:25.413Z,10.37
2017-06-20T14:11:52.908Z,9.70
2017-06-20T14:14:20.420Z,11.47
2017-06-20T14:16:47.924Z,11.03
2017-06-20T14:19:15.437Z,10.80
2017-06-20T14:21:42.932Z,10.63
2017-06-20T14:24:10.448Z,11.07
2017-06-20T14:26:38.709Z,11.90
2017-06-20T14:29:07.432Z,10.40
2017-06-20T14:31:34.924Z,9.93
2017-06-20T14:34:02.432Z,10.20
2017-06-20T14:36:29.920Z,11.20
2017-06-20T14:38:57.428Z,10.27
2017-06-20T14:41:24.920Z,10.70
2017-06-20T14:43:52.428Z,9.50
2017-06-20T14:46:19.915Z,9.10
2017-06-20T14:48:48.194Z,9.87
2017-06-20T14:51:16.453Z,8.63
2017-06-20T14:53:43.955Z,9.90
2017-06-20T14:56:11.452Z,9.10
2017-06-20T14:58:38.956Z,9.27
2017-06-20T15:01:07.217Z,8.53
2017-06-20T15:03:34.727Z,10.50
2017-06-20T15:06:02.211Z,9.87
2017-06-20T15:08:29.710Z,8.97
2017-06-20T15:10:57.970Z,9.33
2017-06-20T15:13:25.470Z,9.80
2017-06-20T15:15:52.959Z,8.83
2017-06-20T15:18:20.459Z,9.07
2017-06-20T15:20:48.717Z,8.60
2017-06-20T15:23:16.227Z,8.50
2017-06-20T15:25:43.711Z,8.40
2017-06-20T15:28:11.234Z,10.03
2017-06-20T15:30:38.728Z,9.80
2017-06-20T15:33:06.232Z,9.80
2017-06-20T15:35:34.485Z,9.40
2017-06-20T15:38:01.997Z,10.33
2017-06-20T15:40:29.504Z,10.90
2017-06-20T15:42:57.018Z,10.03
2017-06-20T15:45:24.516Z,9.07
2017-06-20T15:47:52.019Z,8.83
2017-06-20T15:50:19.507Z,9.00
2017-06-20T15:52:47.007Z,9.40
2017-06-20T15:55:14.498Z,8.60
2017-06-20T15:57:42.012Z,9.10
2017-06-20T16:00:09.504Z,8.50
2017-06-20T16:02:37.023Z,8.83
2017-06-20T16:05:04.522Z,8.87
2017-06-20T16:07:32.811Z,8.20
2017-06-20T16:10:00.331Z,8.80
2017-06-20T16:12:27.853Z,8.60
2017-06-20T16:14:55.357Z,8.20
2017-06-20T16:17:22.866Z,7.80
2017-06-20T16:19:50.356Z,7.77
2017-06-20T16:22:17.873Z,8.60
2017-06-20T16:24:45.370Z,7.90
2017-06-20T16:27:12.875Z,7.80
2017-06-20T16:29:41.368Z,7.10
2017-06-20T16:32:08.886Z,7.87
2017-06-20T16:34:36.379Z,7.13
2017-06-20T16:37:03.885Z,7.83
2017-06-20T16:39:31.373Z,7.30
2017-06-20T16:41:58.884Z,7.63
2017-06-20T16:44:26.375Z,8.13
2017-06-20T16:46:53.887Z,8.10
2017-06-20T16:49:21.380Z,7.27
2017-06-20T16:51:48.891Z,7.30
2017-06-20T16:54:16.371Z,7.33
2017-06-20T16:56:43.871Z,7.63
2017-06-20T16:59:11.372Z,7.30
2017-06-20T17:01:38.876Z,8.20
2017-06-20T17:04:06.367Z,7.47
2017-06-20T17:06:34.096Z,7.73
2017-06-20T17:09:01.589Z,7.87
2017-06-20T17:11:29.862Z,8.10
2017-06-20T17:13:57.356Z,8.80
2017-06-20T17:16:24.868Z,8.63
2017-06-20T17:18:52.388Z,8.13
2017-06-20T17:21:19.895Z,7.20
2017-06-20T17:23:47.431Z,8.00
2017-06-20T17:26:14.933Z,7.90
2017-06-20T17:28:43.195Z,7.70
2017-06-20T17:31:10.712Z,7.70
2017-06-20T17:33:38.208Z,7.73
2017-06-20T17:36:05.717Z,6.93
2017-06-20T17:38:33.215Z,7.50
2017-06-20T17:41:00.721Z,8.07
2017-06-20T17:43:28.217Z,7.40
2017-06-20T17:45:55.725Z,7.77
2017-06-20T17:48:23.980Z,7.30
2017-06-20T17:50:51.485Z,7.50
2017-06-20T17:53:18.996Z,8.00
2017-06-20T17:55:46.516Z,7.97
2017-06-20T17:58:14.010Z,7.73
2017-06-20T18:00:41.520Z,8.07
2017-06-20T18:03:09.016Z,8.50
2017-06-20T18:05:36.524Z,8.17
2017-06-20T18:08:04.011Z,8.40
2017-06-20T18:10:31.524Z,9.17
2017-06-20T18:12:59.789Z,7.53
2017-06-20T18:15:27.309Z,9.13
2017-06-20T18:17:54.804Z,8.77
2017-06-20T18:20:22.314Z,8.53
2017-06-20T18:22:49.806Z,9.10
2017-06-20T18:25:17.333Z,8.93
2017-06-20T18:27:44.832Z,8.10
2017-06-20T18:30:12.392Z,9.13
2017-06-20T18:32:39.883Z,7.90
2017-06-20T18:35:08.214Z,7.43
2017-06-20T18:37:35.703Z,9.80
2017-06-20T18:40:03.216Z,8.63
2017-06-20T18:42:30.715Z,9.30
2017-06-20T18:44:58.211Z,8.27
2017-06-20T18:47:25.723Z,8.87
2017-06-20T18:49:53.211Z,8.63
2017-06-20T18:52:20.732Z,8.60
2017-06-20T18:54:48.223Z,8.93
2017-06-20T18:57:15.741Z,7.77
2017-06-20T18:59:43.236Z,8.20
2017-06-20T19:02:12.351Z,9.70
2017-06-20T19:04:40.604Z,8.03
2017-06-20T19:07:08.116Z,8.50
2017-06-20T19:09:35.613Z,8.47
2017-06-20T19:12:03.133Z,8.50
2017-06-20T19:14:30.628Z,8.90
2017-06-20T19:16:58.141Z,8.17
2017-06-20T19:19:25.649Z,9.30
2017-06-20T19:21:53.173Z,8.10
2017-06-20T19:24:20.675Z,8.47
2017-06-20T19:26:48.185Z,8.83
2017-06-20T19:29:15.667Z,8.70
2017-06-20T19:31:43.501Z,9.63
2017-06-20T19:34:11.763Z,8.83
2017-06-20T19:36:40.020Z,8.23
2017-06-20T19:39:07.875Z,9.40
2017-06-20T19:41:35.368Z,9.10
2017-06-20T19:44:03.655Z,9.43
2017-06-20T19:46:31.911Z,8.80
2017-06-20T19:48:59.416Z,9.43
2017-06-20T19:51:26.904Z,8.90
2017-06-20T19:53:54.415Z,10.43
2017-06-20T19:56:21.903Z,8.90
2017-06-20T19:58:49.408Z,8.50
2017-06-20T20:01:16.899Z,8.80
2017-06-20T20:03:44.407Z,9.27
2017-06-20T20:06:11.896Z,9.50
2017-06-20T20:08:40.173Z,9.80
2017-06-20T20:11:08.794Z,9.27
2017-06-20T20:13:36.304Z,9.57
2017-06-20T20:16:03.797Z,9.80
2017-06-20T20:18:31.327Z,9.10
2017-06-20T20:20:58.820Z,9.90
2017-06-20T20:23:26.335Z,9.47
2017-06-20T20:25:53.826Z,9.03
2017-06-20T20:28:21.345Z,8.00
2017-06-20T20:30:48.848Z,9.23
2017-06-20T20:33:16.361Z,9.60
2017-06-20T20:35:43.856Z,9.60
2017-06-20T20:38:11.370Z,9.60
2017-06-20T20:40:38.881Z,10.03
2017-06-20T20:43:07.161Z,10.17
2017-06-20T20:45:34.649Z,9.13
2017-06-20T20:48:02.164Z,10.50
2017-06-20T20:50:30.425Z,9.33
2017-06-20T20:52:57.939Z,9.23
2017-06-20T20:55:25.432Z,10.17
2017-06-20T20:57:52.943Z,10.57
2017-06-20T21:00:20.432Z,9.53
2017-06-20T21:02:47.955Z,9.93
2017-06-20T21:05:15.451Z,9.07
2017-06-20T21:07:42.959Z,9.63
2017-06-20T21:10:11.212Z,9.23
2017-06-20T21:12:38.728Z,9.77
2017-06-20T21:15:06.215Z,9.10
2017-06-20T21:17:33.732Z,9.27
2017-06-20T21:20:01.219Z,8.60
2017-06-20T21:22:28.727Z,9.17
2017-06-20T21:24:56.983Z,8.83
2017-06-20T21:27:24.501Z,9.00
2017-06-20T21:29:51.985Z,9.27
2017-06-20T21:32:19.500Z,9.90
2017-06-20T21:34:46.996Z,8.73
2017-06-20T21:37:14.501Z,8.87
2017-06-20T21:39:42.756Z,8.50
2017-06-20T21:42:10.255Z,8.73
2017-06-20T21:44:37.740Z,9.00
2017-06-20T21:47:05.245Z,8.63
2017-06-20T21:49:32.735Z,8.83
2017-06-20T21:52:00.244Z,9.53
2017-06-20T21:54:27.730Z,8.20
2017-06-20T21:56:56.003Z,9.43
2017-06-20T21:59:23.497Z,8.97
2017-06-20T22:01:51.007Z,9.67
2017-06-20T22:04:18.499Z,9.30
2017-06-20T22:06:46.764Z,8.57
2017-06-20T22:09:15.019Z,10.30
2017-06-20T22:11:42.522Z,9.30
2017-06-20T22:14:10.012Z,10.63
2017-06-20T22:16:37.508Z,10.50
2017-06-20T22:19:05.019Z,9.70
2017-06-20T22:21:32.509Z,9.90
2017-06-20T22:24:00.015Z,11.40
2017-06-20T22:26:27.508Z,10.10
2017-06-20T22:28:55.026Z,10.90
2017-06-20T22:31:23.280Z,11.63
2017-06-20T22:33:50.791Z,11.00
2017-06-20T22:36:18.280Z,10.53
2017-06-20T22:38:45.802Z,11.43
2017-06-20T22:41:13.297Z,11.13
2017-06-20T22:43:40.808Z,10.90
2017-06-20T22:46:08.300Z,11.70
2017-06-20T22:48:35.812Z,10.10
2017-06-20T22:51:04.079Z,10.07
2017-06-20T22:53:31.592Z,10.73
2017-06-20T22:55:59.084Z,11.40
2017-06-20T22:58:26.591Z,9.30
2017-06-20T23:00:54.084Z,10.70
2017-06-20T23:03:21.598Z,9.53
2017-06-20T23:05:49.084Z,9.07
2017-06-20T23:08:16.617Z,9.63
2017-06-20T23:10:44.104Z,9.90
2017-06-20T23:13:11.607Z,10.10
2017-06-20T23:15:39.864Z,11.63
2017-06-20T23:18:07.371Z,10.63
2017-06-20T23:20:34.863Z,11.13
2017-06-20T23:23:02.392Z,10.60
2017-06-20T23:25:29.893Z,10.63
2017-06-20T23:27:57.404Z,11.00
2017-06-20T23:30:24.900Z,11.57
2017-06-20T23:32:52.416Z,11.40
2017-06-20T23:35:20.678Z,11.87
2017-06-20T23:37:48.192Z,12.80
2017-06-20T23:40:15.684Z,12.50
2017-06-20T23:42:43.195Z,12.80
2017-06-20T23:45:10.684Z,13.40
2017-06-20T23:47:38.200Z,13.60
2017-06-20T23:50:05.688Z,12.00
2017-06-20T23:52:33.187Z,13.03
2017-06-20T23:55:00.680Z,13.60
2017-06-20T23:57:28.194Z,11.33
2017-06-20T23:59:55.679Z,13.00
